Time;durP1;ratioP1;P1;durP2;ratioP2;P2;SDS_P1;SDS_P2;PMS_P1;PMS_P2;Temp;Humidity;BMP_temperature;BMP_pressure;BME280_temperature;BME280_humidity;BME280_pressure;Samples;Min_cycle;Max_cycle;Signal;HPM_P1;HPM_P2
2022/10/03 00:00:12;;;;;;;;;6.00;6.00;;;;;21.77;46.53;102153.22;4881323;29;45865;-56
2022/10/03 00:02:56;;;;;;;;;8.00;6.00;;;;;21.75;46.68;102145.34;4881149;29;46124;-57
2022/10/03 00:05:22;;;;;;;;;6.75;6.75;;;;;21.75;46.64;102149.75;4880842;29;45830;-58
2022/10/03 00:08:19;;;;;;;;;6.00;4.00;;;;;21.74;46.52;102151.53;4881248;28;45259;-58
2022/10/03 00:10:57;;;;;;;;;6.00;6.00;;;;;21.75;46.77;102149.75;4881266;29;45360;-57
2022/10/03 00:13:25;;;;;;;;;6.00;4.25;;;;;21.74;46.72;102158.59;4881178;29;46361;-57
2022/10/03 00:16:05;;;;;;;;;6.25;6.00;;;;;21.74;46.71;102162.09;4881037;29;45386;-60
2022/10/03 00:18:44;;;;;;;;;6.00;5.75;;;;;21.73;46.67;102160.38;4881553;29;45330;-55
2022/10/03 00:21:18;;;;;;;;;5.00;5.00;;;;;21.75;46.29;102165.59;4881686;29;45331;-56
2022/10/03 00:23:54;;;;;;;;;5.25;5.00;;;;;21.72;46.50;102166.56;4881103;29;45327;-58
2022/10/03 00:26:36;;;;;;;;;6.50;5.00;;;;;21.74;46.69;102158.59;4881871;29;45342;-57
2022/10/03 00:29:02;;;;;;;;;3.75;3.75;;;;;21.73;46.61;102160.38;4882240;29;45436;-57
2022/10/03 00:32:12;;;;;;;;;7.33;4.33;;;;;21.72;46.46;102156.00;4881983;29;45331;-56
2022/10/03 00:34:49;;;;;;;;;5.00;5.00;;;;;21.72;46.69;102160.44;4883376;29;45311;-61
2022/10/03 00:37:37;;;;;;;;;5.75;5.75;;;;;21.72;46.17;102165.72;4888227;29;45308;-60
2022/10/03 00:40:20;;;;;;;;;5.00;5.00;;;;;21.72;46.76;102165.72;4898339;29;44744;-67
2022/10/03 00:43:30;;;;;;;;;4.00;4.00;;;;;21.72;46.52;102166.56;4881902;29;45248;-68
2022/10/03 00:46:13;;;;;;;;;4.25;4.25;;;;;21.72;46.66;102171.00;4889901;29;46429;-69
2022/10/03 00:48:41;;;;;;;;;8.75;5.00;;;;;21.70;46.73;102164.91;4881687;29;47939;-66
2022/10/03 00:51:23;;;;;;;;;5.25;5.25;;;;;21.71;46.75;102164.00;4880990;29;45287;-66
2022/10/03 00:54:10;;;;;;;;;5.75;4.75;;;;;21.71;46.62;102166.63;4881171;29;45355;-69
2022/10/03 00:57:09;;;;;;;;;6.50;5.00;;;;;21.71;46.71;102164.00;4895501;29;46528;-58
2022/10/03 00:59:49;;;;;;;;;4.75;4.75;;;;;21.69;46.51;102158.78;4881147;29;45386;-63
2022/10/03 01:02:38;;;;;;;;;6.75;6.75;;;;;21.69;46.91;102168.47;4881254;29;45435;-62
2022/10/03 01:05:25;;;;;;;;;4.00;4.00;;;;;21.69;46.53;102166.69;4888012;29;45811;-69
2022/10/03 01:08:21;;;;;;;;;3.00;3.00;;;;;21.70;46.61;102167.53;4888317;29;45585;-65
2022/10/03 01:10:55;;;;;;;;;4.25;3.00;;;;;21.69;46.54;102164.06;4884348;29;45524;-62
2022/10/03 01:13:45;;;;;;;;;4.50;4.50;;;;;21.68;46.74;102170.25;4884957;29;45295;-57
2022/10/03 01:16:35;;;;;;;;;5.25;4.00;;;;;21.68;46.48;102162.34;4882472;29;45372;-59
2022/10/03 01:19:16;;;;;;;;;4.25;4.25;;;;;21.69;46.71;102157.91;4880526;29;45590;-58
2022/10/03 01:22:01;;;;;;;;;4.00;4.00;;;;;21.68;46.80;102162.34;4895190;29;45291;-61
2022/10/03 01:24:53;;;;;;;;;5.00;5.00;;;;;21.67;46.88;102171.16;4890042;29;45370;-68
2022/10/03 01:30:21;;;;;;;;;4.50;4.50;;;;;21.67;46.52;102167.66;4881561;29;45364;-60
2022/10/03 01:30:40;;;;;;;;;4.00;4.00;;;;;21.66;46.40;102165.97;4882409;29;45722;-67
2022/10/03 01:33:13;;;;;;;;;5.00;5.00;;;;;21.67;46.53;102162.38;4886354;29;45233;-60
2022/10/03 01:35:55;;;;;;;;;4.00;4.00;;;;;21.66;46.50;102169.44;4890766;29;44670;-56
2022/10/03 01:38:23;;;;;;;;;7.50;4.00;;;;;21.67;46.46;102171.16;4896600;29;45390;-59
2022/10/03 01:41:02;;;;;;;;;5.00;5.00;;;;;21.67;46.45;102170.28;4894893;29;45967;-58
2022/10/03 01:43:49;;;;;;;;;6.00;4.75;;;;;21.67;46.36;102162.38;4887100;29;45350;-67
2022/10/03 01:46:27;;;;;;;;;5.75;4.00;;;;;21.66;46.70;102155.41;4884507;29;45381;-65
2022/10/03 01:49:10;;;;;;;;;6.25;4.50;;;;;21.66;46.52;102160.69;4895886;29;45361;-66
2022/10/03 01:51:47;;;;;;;;;7.00;4.00;;;;;21.66;46.60;102155.41;4883357;29;45512;-65
2022/10/03 01:54:34;;;;;;;;;3.00;3.00;;;;;21.66;46.48;102161.53;4884673;29;45240;-60
2022/10/03 01:57:09;;;;;;;;;4.50;4.00;;;;;21.64;46.49;102155.44;4884651;28;45308;-60
2022/10/03 01:59:53;;;;;;;;;4.75;4.00;;;;;21.66;46.61;102155.41;4885449;29;45328;-58
2022/10/03 02:02:24;;;;;;;;;4.00;4.00;;;;;21.65;46.44;102151.06;4884709;29;46478;-60
2022/10/03 02:05:02;;;;;;;;;4.00;3.50;;;;;21.65;46.62;102151.06;4885950;29;45320;-67
2022/10/03 02:07:54;;;;;;;;;4.75;3.75;;;;;21.65;46.54;102148.41;4906337;29;45679;-66
2022/10/03 02:10:37;;;;;;;;;4.00;4.00;;;;;21.65;46.77;102156.31;4897906;28;45414;-60
2022/10/03 02:13:16;;;;;;;;;4.00;4.00;;;;;21.64;46.33;102149.34;4902878;29;46468;-59
2022/10/03 02:15:54;;;;;;;;;3.75;3.75;;;;;21.64;46.38;102149.34;4894913;29;45031;-59
2022/10/03 02:18:27;;;;;;;;;3.75;3.75;;;;;21.64;46.42;102158.09;4885757;29;45279;-62
2022/10/03 02:21:09;;;;;;;;;3.00;3.00;;;;;21.64;46.67;102151.97;4883493;29;45575;-59
2022/10/03 02:23:35;;;;;;;;;2.75;2.75;;;;;21.65;46.82;102143.13;4902283;29;47400;-60
2022/10/03 02:26:27;;;;;;;;;5.00;3.75;;;;;21.64;46.37;102149.34;4900626;29;45534;-65
2022/10/03 02:29:23;;;;;;;;;3.00;3.00;;;;;21.64;46.56;102144.06;4883554;29;45429;-58
2022/10/03 02:32:16;;;;;;;;;3.00;3.00;;;;;21.61;46.42;102143.25;4884074;28;45605;-72
2022/10/03 02:35:10;;;;;;;;;2.75;2.50;;;;;21.62;46.61;102152.88;4884154;29;45724;-63
2022/10/03 02:37:54;;;;;;;;;3.50;3.25;;;;;21.62;46.41;102146.72;4884630;29;45315;-67
2022/10/03 02:40:50;;;;;;;;;4.00;3.00;;;;;21.62;46.76;102144.09;4884240;29;45251;-58
2022/10/03 02:43:34;;;;;;;;;2.75;2.75;;;;;21.61;46.87;102148.53;4887581;28;45340;-68
2022/10/03 02:46:17;;;;;;;;;4.00;3.00;;;;;21.60;46.84;102152.09;4887950;29;45593;-59
2022/10/03 02:48:54;;;;;;;;;4.25;2.50;;;;;21.60;46.33;102153.88;4883821;29;45261;-57
2022/10/03 02:51:35;;;;;;;;;3.00;3.00;;;;;21.60;46.57;102152.09;4883675;29;45303;-62
2022/10/03 02:54:19;;;;;;;;;3.50;3.50;;;;;21.61;46.28;102152.94;4883795;29;45537;-58
2022/10/03 02:57:04;;;;;;;;;3.50;3.50;;;;;21.60;46.36;102149.44;4882304;29;47582;-57
2022/10/03 03:00:04;;;;;;;;;5.00;3.00;;;;;21.60;46.54;102146.81;4884056;29;45835;-60
2022/10/03 03:03:07;;;;;;;;;3.00;3.00;;;;;21.59;46.91;102145.09;4882879;29;45332;-58
2022/10/03 03:06:09;;;;;;;;;2.00;2.00;;;;;21.58;46.50;102143.31;4883976;29;45374;-58
2022/10/03 03:08:53;;;;;;;;;3.00;3.00;;;;;21.58;46.85;102143.31;4890997;29;46319;-59
2022/10/03 03:11:25;;;;;;;;;3.75;3.25;;;;;21.58;46.71;102145.97;4905098;29;45071;-56
2022/10/03 03:14:01;;;;;;;;;2.75;2.75;;;;;21.58;46.51;102143.31;4902049;29;44734;-62
2022/10/03 03:16:35;;;;;;;;;3.00;3.00;;;;;21.58;46.87;102155.69;4895155;29;45322;-57
2022/10/03 03:19:10;;;;;;;;;6.00;2.00;;;;;21.58;46.70;102145.97;4898750;29;48523;-58
2022/10/03 03:22:04;;;;;;;;;4.25;4.25;;;;;21.59;46.37;102154.78;4884039;28;45401;-57
2022/10/03 03:24:47;;;;;;;;;3.50;3.25;;;;;21.58;46.71;102148.59;4883659;29;45205;-56
2022/10/03 03:27:24;;;;;;;;;3.00;3.00;;;;;21.58;46.61;102143.31;4883448;29;45544;-58
2022/10/03 03:30:13;;;;;;;;;2.25;2.25;;;;;21.58;46.27;102143.31;4882300;29;45407;-58
2022/10/03 03:33:11;;;;;;;;;3.50;3.50;;;;;21.57;46.70;102149.53;4887191;29;45306;-58
2022/10/03 03:35:52;;;;;;;;;4.00;4.00;;;;;21.57;46.75;102149.53;4901071;29;45897;-60
2022/10/03 03:38:34;;;;;;;;;4.00;3.50;;;;;21.55;46.53;102140.81;4902137;29;45559;-64
2022/10/03 03:41:31;;;;;;;;;4.00;3.00;;;;;21.57;46.35;102148.69;4902463;29;45591;-67
2022/10/03 03:44:25;;;;;;;;;3.75;3.00;;;;;21.57;46.77;102143.41;4919354;29;45189;-57
2022/10/03 03:47:09;;;;;;;;;3.00;2.00;;;;;21.56;46.45;102145.16;4902451;29;44733;-61
2022/10/03 03:49:56;;;;;;;;;2.75;2.75;;;;;21.57;46.47;102146.88;4905731;29;44808;-58
2022/10/03 03:52:43;;;;;;;;;4.00;2.75;;;;;21.56;46.80;102150.44;4885102;28;45650;-66
2022/10/03 03:55:26;;;;;;;;;2.00;2.00;;;;;21.56;46.40;102150.44;4882521;29;45854;-58
2022/10/03 03:58:23;;;;;;;;;3.00;2.25;;;;;21.55;46.58;102151.34;4882841;29;45385;-59
2022/10/03 04:01:00;;;;;;;;;2.25;2.25;;;;;21.55;46.82;102147.88;4886488;29;45387;-68
2022/10/03 04:03:31;;;;;;;;;3.25;3.25;;;;;21.54;46.81;102146.16;4881959;29;46780;-65
2022/10/03 04:06:35;;;;;;;;;3.00;2.25;;;;;21.53;46.44;102147.94;4882571;29;45401;-67
2022/10/03 04:09:21;;;;;;;;;3.75;2.75;;;;;21.52;46.69;102154.13;4886569;29;45299;-63
2022/10/03 04:12:31;;;;;;;;;5.75;5.00;;;;;21.50;46.60;102149.84;4882636;29;45348;-64
2022/10/03 04:14:59;;;;;;;;;8.00;5.75;;;;;21.48;46.66;102144.59;4888810;29;45891;-67
2022/10/03 04:21:29;;;;;;;;;6.00;6.00;;;;;21.43;46.73;102155.34;4882354;29;45236;-61
2022/10/03 04:24:30;;;;;;;;;11.00;9.50;;;;;21.42;46.90;102152.78;4890313;29;45387;-64
2022/10/03 04:27:07;;;;;;;;;28.25;26.75;;;;;21.42;46.88;102152.78;4880709;29;46433;-64
2022/10/03 04:29:45;;;;;;;;;54.50;45.75;;;;;21.40;46.98;102155.44;4882628;28;45641;-67
2022/10/03 04:32:44;;;;;;;;;58.25;49.00;;;;;21.39;47.02;102163.44;4887185;28;45288;-69
2022/10/03 04:35:47;;;;;;;;;52.75;43.00;;;;;21.37;46.93;102158.22;4893452;29;45324;-69
2022/10/03 04:38:31;;;;;;;;;32.50;31.25;;;;;21.35;46.89;102159.19;4885253;29;45476;-65
2022/10/03 04:41:14;;;;;;;;;46.00;39.25;;;;;21.31;47.04;102148.75;4886818;28;45338;-65
2022/10/03 04:44:11;;;;;;;;;40.50;36.00;;;;;21.32;46.99;102157.53;4887174;29;45414;-67
2022/10/03 04:46:38;;;;;;;;;35.00;32.50;;;;;21.33;46.96;102156.59;4885965;29;45482;-70
2022/10/03 04:49:11;;;;;;;;;36.00;34.00;;;;;21.35;46.73;102161.81;4884889;29;46517;-70
2022/10/03 04:51:57;;;;;;;;;35.50;32.50;;;;;21.34;46.78;102162.72;4885275;29;45828;-69
2022/10/03 04:54:22;;;;;;;;;29.00;28.75;;;;;21.34;46.91;102158.31;4885650;29;45407;-67
2022/10/03 04:56:51;;;;;;;;;27.67;25.67;;;;;21.35;47.02;102161.81;4905885;28;45403;-72
2022/10/03 04:59:47;;;;;;;;;33.50;30.25;;;;;21.35;47.06;102162.69;4909578;28;46362;-70
2022/10/03 05:02:13;;;;;;;;;28.50;28.50;;;;;21.36;47.04;102168.81;4911843;28;45239;-58
2022/10/03 05:04:52;;;;;;;;;26.00;25.75;;;;;21.36;46.94;102168.81;4915987;28;45362;-67
2022/10/03 05:07:40;;;;;;;;;28.00;25.00;;;;;21.36;46.77;102174.97;4921956;28;45396;-59
2022/10/03 05:10:22;;;;;;;;;24.25;24.00;;;;;21.36;47.10;102169.69;4919747;28;45733;-62
2022/10/03 05:13:01;;;;;;;;;23.00;22.00;;;;;21.34;46.84;102171.50;4915970;28;45973;-61
2022/10/03 05:16:08;;;;;;;;;19.50;19.00;;;;;21.37;46.87;102178.44;4916582;28;45398;-58
2022/10/03 05:18:46;;;;;;;;;25.50;22.75;;;;;21.37;46.86;102170.53;4914805;28;45427;-60
2022/10/03 05:21:27;;;;;;;;;23.50;20.25;;;;;21.36;46.84;102172.31;4913241;28;45487;-56
2022/10/03 05:24:02;;;;;;;;;22.75;19.50;;;;;21.36;46.96;102169.69;4911968;28;45986;-57
2022/10/03 05:26:45;;;;;;;;;19.50;19.50;;;;;21.37;46.76;102179.31;4919414;28;45302;-57
2022/10/03 05:29:38;;;;;;;;;22.50;20.25;;;;;21.36;46.59;102168.81;4924147;28;45714;-57
2022/10/03 05:32:16;;;;;;;;;17.50;17.50;;;;;21.35;46.84;102167.97;4907995;28;45709;-57
2022/10/03 05:35:17;;;;;;;;;20.00;18.00;;;;;21.36;46.77;102174.97;4905588;28;45950;-58
2022/10/03 05:37:52;;;;;;;;;18.25;18.25;;;;;21.36;46.34;102180.25;4902669;29;45462;-56
2022/10/03 05:40:28;;;;;;;;;16.25;16.25;;;;;21.35;46.53;102178.50;4903633;28;45432;-56
2022/10/03 05:43:10;;;;;;;;;17.00;16.75;;;;;21.36;46.78;102182.00;4903061;28;46731;-58
2022/10/03 05:45:59;;;;;;;;;14.25;14.25;;;;;21.36;46.52;102184.63;4902724;28;45409;-59
2022/10/03 05:48:45;;;;;;;;;14.75;14.00;;;;;21.36;46.79;102179.34;4902483;28;45389;-59
2022/10/03 05:51:35;;;;;;;;;18.00;16.25;;;;;21.35;46.73;102185.56;4901797;28;45371;-56
2022/10/03 05:54:00;;;;;;;;;15.25;14.25;;;;;21.35;46.73;102189.06;4902275;28;47369;-66
2022/10/03 05:56:47;;;;;;;;;19.67;13.00;;;;;21.34;46.41;102174.16;4901355;29;45367;-62
2022/10/03 05:59:33;;;;;;;;;14.50;14.25;;;;;21.35;46.81;102178.50;4901801;28;45469;-61
2022/10/03 06:02:11;;;;;;;;;18.25;16.25;;;;;21.34;46.62;102175.91;4902455;28;45438;-68
2022/10/03 06:04:52;;;;;;;;;14.50;14.50;;;;;21.34;46.75;102175.91;4902039;28;47189;-68
2022/10/03 06:07:20;;;;;;;;;14.50;14.00;;;;;21.34;46.80;102171.50;4905100;28;45964;-57
2022/10/03 06:10:00;;;;;;;;;15.75;13.25;;;;;21.35;46.52;102172.38;4907254;28;45469;-56
2022/10/03 06:12:47;;;;;;;;;15.25;15.25;;;;;21.35;46.31;102167.09;4918607;28;45407;-58
2022/10/03 06:15:38;;;;;;;;;16.00;13.75;;;;;21.33;46.71;102164.53;4903694;28;46812;-61
2022/10/03 06:18:50;;;;;;;;;15.25;13.75;;;;;21.35;46.65;102172.38;4912690;28;45188;-61
2022/10/03 06:21:53;;;;;;;;;11.50;10.00;;;;;21.35;46.58;102177.63;4903693;28;45275;-57
2022/10/03 06:24:37;;;;;;;;;12.50;12.00;;;;;21.34;46.60;102179.44;4916319;28;45367;-57
2022/10/03 06:27:30;;;;;;;;;14.75;13.50;;;;;21.33;46.42;102182.97;4917688;28;46625;-66
2022/10/03 06:30:20;;;;;;;;;14.25;12.00;;;;;21.33;46.55;102192.69;4902623;28;45516;-60
2022/10/03 06:32:58;;;;;;;;;12.25;10.50;;;;;21.31;46.87;102188.31;4901748;28;45355;-67
2022/10/03 06:36:00;;;;;;;;;15.25;14.50;;;;;21.31;46.79;102188.31;4902064;28;45239;-70
2022/10/03 06:39:02;;;;;;;;;13.00;12.00;;;;;21.30;46.80;102177.81;4915320;28;46842;-68
2022/10/03 06:42:06;;;;;;;;;16.50;15.00;;;;;21.31;46.34;102185.69;4902000;28;45984;-60
2022/10/03 06:44:56;;;;;;;;;16.25;13.50;;;;;21.31;46.39;102188.31;4902078;28;45901;-60
2022/10/03 06:47:59;;;;;;;;;13.50;11.50;;;;;21.31;46.56;102187.44;4919925;28;45445;-57
2022/10/03 06:50:44;;;;;;;;;16.25;11.00;;;;;21.31;46.63;102201.50;4919398;28;46926;-58
2022/10/03 06:53:13;;;;;;;;;9.75;9.50;;;;;21.32;46.39;102199.72;4929991;28;45413;-61
2022/10/03 06:55:52;;;;;;;;;11.00;10.50;;;;;21.32;46.35;102194.44;4934712;28;45413;-60
2022/10/03 06:58:20;;;;;;;;;12.00;10.50;;;;;21.34;46.22;102202.28;4919277;28;45480;-59
2022/10/03 07:01:10;;;;;;;;;14.50;11.50;;;;;21.33;46.27;102208.50;4920188;28;46719;-59
2022/10/03 07:03:54;;;;;;;;;16.25;12.00;;;;;21.32;46.30;102210.25;4920576;28;45350;-61
2022/10/03 07:06:34;;;;;;;;;11.00;10.25;;;;;21.33;46.25;102213.78;4920736;28;45380;-58
2022/10/03 07:09:37;;;;;;;;;10.75;10.00;;;;;21.31;46.27;102214.69;4922346;28;45388;-60
2022/10/03 07:12:11;;;;;;;;;11.75;11.75;;;;;21.31;46.33;102214.69;4922982;28;45385;-62
2022/10/03 07:15:01;;;;;;;;;10.00;9.50;;;;;21.31;46.50;102214.69;4931398;28;45183;-59
2022/10/03 07:17:57;;;;;;;;;10.25;10.25;;;;;21.31;46.48;102214.69;4940582;28;45227;-60
2022/10/03 07:21:14;;;;;;;;;11.25;10.75;;;;;21.30;46.09;102218.25;4940961;28;44830;-62
2022/10/03 07:23:42;;;;;;;;;11.00;10.50;;;;;21.30;46.12;102223.53;4923511;28;46675;-60
2022/10/03 07:26:11;;;;;;;;;10.25;9.00;;;;;21.29;46.22;102221.78;4934086;28;45174;-58
2022/10/03 07:29:05;;;;;;;;;10.00;9.00;;;;;21.31;46.30;102217.34;4937484;28;45144;-58
2022/10/03 07:32:05;;;;;;;;;15.00;10.00;;;;;21.31;46.04;102214.69;4927161;28;45453;-58
2022/10/03 07:35:08;;;;;;;;;10.50;9.75;;;;;21.30;46.35;102226.16;4915697;28;47103;-56
2022/10/03 07:41:20;;;;;;;;;9.75;8.25;;;;;21.28;46.35;102230.63;4925131;28;45448;-62
2022/10/03 07:44:11;;;;;;;;;10.50;9.50;;;;;21.29;46.36;102242.91;4932286;28;45428;-58
2022/10/03 07:46:36;;;;;;;;;10.00;9.75;;;;;21.28;46.44;102235.91;4924833;28;45965;-63
2022/10/03 07:49:28;;;;;;;;;10.67;10.67;;;;;21.28;46.16;102233.25;4920248;28;45713;-60
2022/10/03 07:52:36;;;;;;;;;11.00;10.50;;;;;21.29;46.15;102227.06;4921121;28;45721;-64
2022/10/03 07:55:28;;;;;;;;;9.00;8.00;;;;;21.29;46.09;102236.75;4922028;28;45461;-59
2022/10/03 07:57:56;;;;;;;;;9.75;9.75;;;;;21.29;45.98;102239.38;4897200;28;45578;-62
2022/10/03 08:00:28;;;;;;;;;15.50;10.75;;;;;21.28;46.36;102235.91;4924928;28;45488;-66
2022/10/03 08:03:13;;;;;;;;;10.75;10.50;;;;;21.28;46.37;102241.16;4926980;28;45434;-61
2022/10/03 08:06:16;;;;;;;;;12.00;10.50;;;;;21.28;46.16;102249.06;4924824;28;45684;-61
2022/10/03 08:09:18;;;;;;;;;11.00;9.00;;;;;21.28;45.97;102246.44;4924797;28;45440;-62
2022/10/03 08:12:30;;;;;;;;;11.25;10.75;;;;;21.30;45.96;102249.88;4920842;28;45465;-60
2022/10/03 08:15:26;;;;;;;;;8.75;8.75;;;;;21.30;46.40;102247.25;4917030;28;45433;-57
2022/10/03 08:18:23;;;;;;;;;14.00;11.00;;;;;21.30;46.49;102249.88;4910044;28;45679;-58
2022/10/03 08:20:58;;;;;;;;;12.50;10.50;;;;;21.30;46.48;102249.88;4910622;28;46482;-65
2022/10/03 08:23:57;;;;;;;;;8.25;8.25;;;;;21.33;46.33;102248.06;4881393;29;45379;-61
2022/10/03 08:26:38;;;;;;;;;12.00;10.25;;;;;21.31;46.60;102245.47;4887700;29;45859;-59
2022/10/03 08:29:07;;;;;;;;;12.00;10.00;;;;;21.33;46.42;102248.06;4894432;29;44788;-59
2022/10/03 08:31:43;;;;;;;;;10.25;6.00;;;;;21.35;46.20;102251.47;4885265;29;45515;-63
2022/10/03 08:34:27;;;;;;;;;12.75;10.75;;;;;21.33;46.60;102243.63;4883218;29;45936;-61
2022/10/03 08:37:24;;;;;;;;;11.00;8.25;;;;;21.34;46.41;102244.47;4883974;29;45466;-62
2022/10/03 08:40:13;;;;;;;;;10.00;9.25;;;;;21.33;46.53;102235.72;4895606;29;44957;-61
2022/10/03 08:42:49;;;;;;;;;10.25;10.25;;;;;21.33;46.49;102232.25;4882803;29;46558;-59
2022/10/03 08:45:37;;;;;;;;;12.50;10.00;;;;;21.36;46.26;102237.38;4879929;29;45436;-56
2022/10/03 08:48:23;;;;;;;;;8.00;8.00;;;;;21.36;46.36;102240.00;4882405;29;45848;-59
2022/10/03 08:51:15;;;;;;;;;13.50;11.00;;;;;21.37;46.23;102239.09;4881749;29;45620;-60
2022/10/03 08:54:18;;;;;;;;;8.50;7.75;;;;;21.36;46.14;102232.09;4881905;29;46436;-59
2022/10/03 08:57:14;;;;;;;;;8.25;8.25;;;;;21.37;46.19;102236.47;4881878;29;45274;-62
2022/10/03 09:00:01;;;;;;;;;12.50;10.50;;;;;21.37;46.12;102233.81;4882419;29;45478;-62
2022/10/03 09:02:41;;;;;;;;;12.25;9.25;;;;;21.36;46.23;102235.63;4906996;28;45327;-60
2022/10/03 09:05:43;;;;;;;;;10.25;8.50;;;;;21.36;46.01;102234.75;4911594;28;45656;-60
2022/10/03 09:08:26;;;;;;;;;9.50;7.25;;;;;21.35;46.00;102247.09;4919102;28;45502;-61
2022/10/03 09:11:10;;;;;;;;;8.50;7.50;;;;;21.34;45.99;102245.34;4912483;28;45504;-62
2022/10/03 09:14:13;;;;;;;;;11.25;7.25;;;;;21.33;45.94;102246.28;4913246;28;45614;-59
2022/10/03 09:16:38;;;;;;;;;8.75;7.75;;;;;21.31;46.49;102256.88;4913101;28;45463;-60
2022/10/03 09:19:28;;;;;;;;;8.50;7.50;;;;;21.33;46.58;102267.38;4912063;28;45257;-59
2022/10/03 09:22:19;;;;;;;;;9.00;7.25;;;;;21.34;46.51;102276.13;4897697;28;45374;-60
2022/10/03 09:25:09;;;;;;;;;7.50;7.25;;;;;21.33;46.25;102272.66;4901254;28;45289;-60
2022/10/03 09:28:07;;;;;;;;;11.75;9.25;;;;;21.33;46.49;102272.66;4901779;28;45353;-62
2022/10/03 09:31:02;;;;;;;;;7.25;6.00;;;;;21.34;46.19;102276.13;4902747;28;45390;-63
2022/10/03 09:34:03;;;;;;;;;9.50;8.50;;;;;21.35;46.04;102285.75;4903319;28;45832;-61
2022/10/03 09:37:16;;;;;;;;;8.25;8.25;;;;;21.35;46.27;102277.84;4903055;28;45526;-59
2022/10/03 09:40:40;;;;;;;;;9.50;7.75;;;;;21.36;46.21;102290.13;4919186;28;46505;-59
2022/10/03 09:43:35;;;;;;;;;7.00;7.00;;;;;21.36;45.99;102276.94;4933525;28;45204;-62
2022/10/03 09:46:12;;;;;;;;;7.50;6.00;;;;;21.38;46.37;102283.03;4939656;28;45360;-63
2022/10/03 09:48:55;;;;;;;;;13.25;9.75;;;;;21.36;46.08;102274.31;4925344;28;45425;-62
2022/10/03 09:51:39;;;;;;;;;8.25;8.00;;;;;21.35;46.24;102272.56;4920600;28;46298;-61
2022/10/03 09:54:29;;;;;;;;;9.00;7.75;;;;;21.36;46.33;102274.31;4921339;28;45390;-63
2022/10/03 09:57:18;;;;;;;;;6.75;6.75;;;;;21.35;45.97;102276.09;4921429;28;45327;-60
2022/10/03 09:59:52;;;;;;;;;9.00;7.75;;;;;21.36;46.00;102271.66;4924484;28;45259;-64
2022/10/03 10:02:45;;;;;;;;;7.00;7.00;;;;;21.36;45.84;102269.03;4941080;28;45507;-60
2022/10/03 10:05:43;;;;;;;;;10.50;8.25;;;;;21.37;46.03;102260.19;4929078;28;45133;-61
2022/10/03 10:08:20;;;;;;;;;9.00;9.00;;;;;21.37;46.19;102261.06;4923503;28;45258;-62
2022/10/03 10:10:54;;;;;;;;;7.50;7.50;;;;;21.38;46.16;102252.25;4921304;28;45612;-63
2022/10/03 10:13:57;;;;;;;;;9.75;7.25;;;;;21.38;46.00;102238.19;4920732;28;46279;-59
2022/10/03 10:16:25;;;;;;;;;8.00;8.00;;;;;21.39;46.28;102253.94;4921205;28;45698;-61
2022/10/03 10:19:32;;;;;;;;;7.50;7.50;;;;;21.38;46.23;102256.66;4924377;28;45604;-61
2022/10/03 10:22:01;;;;;;;;;7.00;5.75;;;;;21.37;46.05;102254.94;4928818;28;45366;-63
2022/10/03 10:24:29;;;;;;;;;11.25;8.25;;;;;21.36;46.14;102263.75;4926972;28;46138;-61
2022/10/03 10:27:03;;;;;;;;;12.50;12.50;;;;;21.29;45.60;102264.00;4928598;28;45730;-58
2022/10/03 10:30:07;;;;;;;;;18.50;15.75;;;;;21.03;45.20;102256.13;4922075;28;45358;-58
2022/10/03 10:32:53;;;;;;;;;18.25;13.25;;;;;20.69;45.95;102251.06;4920397;28;45552;-63
2022/10/03 10:35:45;;;;;;;;;12.75;12.25;;;;;20.47;46.06;102252.69;4921651;28;46501;-64
2022/10/03 10:38:58;;;;;;;;;16.25;12.50;;;;;20.32;46.28;102259.31;4920071;28;45357;-66
2022/10/03 10:42:01;;;;;;;;;20.50;13.75;;;;;20.17;46.81;102251.00;4938276;28;45460;-63
2022/10/03 10:44:52;;;;;;;;;15.50;15.00;;;;;20.06;46.67;102246.06;4921173;28;45486;-63
2022/10/03 10:47:42;;;;;;;;;17.75;14.75;;;;;19.95;47.11;102240.28;4920384;28;45448;-63
2022/10/03 10:50:43;;;;;;;;;17.25;14.50;;;;;19.81;47.46;102237.16;4928820;28;45332;-71
2022/10/03 10:53:08;;;;;;;;;16.50;13.00;;;;;19.69;47.38;102233.97;4924945;28;45216;-59
2022/10/03 10:55:55;;;;;;;;;18.33;16.33;;;;;19.63;47.29;102236.81;4922370;28;45528;-58
2022/10/03 10:59:05;;;;;;;;;15.50;12.50;;;;;19.59;47.38;102238.66;4921257;28;46133;-61
2022/10/03 11:02:04;;;;;;;;;19.50;13.75;;;;;19.51;47.93;102242.41;4932481;28;45492;-61
2022/10/03 11:05:01;;;;;;;;;20.50;18.25;;;;;19.43;47.92;102247.88;4931723;28;45156;-59
2022/10/03 11:07:45;;;;;;;;;19.50;18.25;;;;;19.33;48.24;102247.31;4932073;28;45256;-62
2022/10/03 11:10:34;;;;;;;;;18.25;16.50;;;;;19.35;47.86;102245.47;4921820;28;46551;-60
2022/10/03 11:13:27;;;;;;;;;19.75;13.75;;;;;19.38;48.05;102241.91;4922623;28;45416;-71
2022/10/03 11:16:33;;;;;;;;;19.75;17.50;;;;;19.35;47.88;102253.34;4922052;28;45417;-69
2022/10/03 11:19:01;;;;;;;;;18.75;17.00;;;;;19.37;47.86;102243.66;4922099;28;45314;-66
2022/10/03 11:21:45;;;;;;;;;20.75;17.50;;;;;19.41;47.83;102241.81;4919594;28;47295;-67
2022/10/03 11:24:47;;;;;;;;;17.50;17.00;;;;;19.39;47.91;102236.59;4920689;28;46030;-64
2022/10/03 11:27:37;;;;;;;;;19.50;16.75;;;;;19.36;47.80;102241.94;4920262;28;45456;-65
2022/10/03 11:30:08;;;;;;;;;16.25;15.25;;;;;19.31;48.38;102234.19;4920129;28;45662;-63
2022/10/03 11:32:56;;;;;;;;;23.75;16.50;;;;;19.24;48.23;102235.25;4926182;28;46461;-64
2022/10/03 11:35:24;;;;;;;;;18.25;16.00;;;;;19.28;48.29;102238.66;4934206;28;45178;-57
2022/10/03 11:38:01;;;;;;;;;16.25;15.25;;;;;19.31;48.41;102238.59;4941992;28;44640;-60
2022/10/03 11:40:35;;;;;;;;;16.00;15.50;;;;;19.35;48.26;102226.22;4931869;28;45213;-61
2022/10/03 11:43:12;;;;;;;;;16.50;15.75;;;;;19.36;47.95;102225.31;4921826;28;46350;-72
2022/10/03 11:45:50;;;;;;;;;16.50;15.00;;;;;19.39;48.09;102223.44;4920759;28;45943;-67
2022/10/03 11:48:36;;;;;;;;;15.50;15.50;;;;;19.45;47.91;102225.03;4920440;28;45384;-62
2022/10/03 11:51:17;;;;;;;;;26.50;18.50;;;;;19.52;48.22;102225.72;4920437;28;45424;-63
2022/10/03 11:54:17;;;;;;;;;18.50;16.25;;;;;19.58;47.66;102220.28;4918453;28;46207;-54
2022/10/03 11:56:49;;;;;;;;;25.25;21.25;;;;;19.65;47.92;102229.75;4919136;28;45805;-59
2022/10/03 11:59:17;;;;;;;;;24.50;22.75;;;;;19.73;47.73;102222.47;4919826;28;45457;-58
2022/10/03 12:01:57;;;;;;;;;24.25;19.00;;;;;19.79;47.35;102218.78;4919905;28;45473;-59
2022/10/03 12:04:41;;;;;;;;;21.75;17.25;;;;;19.78;47.48;102212.69;4919268;28;45425;-59
2022/10/03 12:10:27;;;;;;;;;16.50;16.50;;;;;19.84;47.36;102219.53;4919331;28;45455;-55
2022/10/03 12:12:55;;;;;;;;;28.25;21.50;;;;;19.85;47.15;102223.00;4920799;28;45442;-54
2022/10/03 12:15:42;;;;;;;;;26.75;21.25;;;;;19.85;46.93;102215.13;4919438;28;45373;-56
2022/10/03 12:18:17;;;;;;;;;25.75;23.75;;;;;19.84;47.23;102216.03;4919235;28;46453;-52
2022/10/03 12:21:13;;;;;;;;;24.50;19.00;;;;;19.83;46.56;102209.03;4919366;28;45414;-50
2022/10/03 12:24:02;;;;;;;;;21.75;19.50;;;;;19.83;47.11;102206.41;4919855;28;45404;-52
2022/10/03 12:26:48;;;;;;;;;24.75;21.00;;;;;19.81;46.77;102205.59;4924465;28;47132;-54
2022/10/03 12:29:18;;;;;;;;;25.25;21.50;;;;;19.80;48.20;102204.75;4923480;28;45767;-59
2022/10/03 12:31:47;;;;;;;;;27.25;22.25;;;;;19.82;48.68;102202.03;4922275;28;45440;-55
2022/10/03 12:34:36;;;;;;;;;22.25;21.75;;;;;19.79;47.50;102195.13;4922118;28;45341;-58
2022/10/03 12:37:16;;;;;;;;;25.75;22.00;;;;;19.69;47.73;102191.06;4918144;28;46267;-57
2022/10/03 12:40:03;;;;;;;;;23.00;20.00;;;;;19.62;47.53;102193.00;4920135;28;45301;-59
2022/10/03 12:42:36;;;;;;;;;20.00;19.25;;;;;19.56;47.39;102195.81;4919466;28;45360;-48
2022/10/03 12:45:01;;;;;;;;;21.75;18.50;;;;;19.54;47.85;102193.22;4922330;28;45459;-60
2022/10/03 12:47:53;;;;;;;;;17.00;16.33;;;;;19.52;47.29;102187.13;4921297;28;46705;-55
2022/10/03 12:51:00;;;;;;;;;21.75;16.75;;;;;19.52;47.78;102183.66;4925613;28;45356;-61